Hovedside
METAR-TAF:

METAR-TAF

Lufthavner :

Mandalay, Burma

breddegrad: 21-59N, lengdegrad: 096-06E, høyde over havet: 74 m

Gjeldene værobservasjon

Denne rapporten ble laget for 41 minutter siden, klokken 06:30 UTC
Vind 10 kt fra Sør-sørvest
Temperatur 38°C
Luftfuktighet 33%
Trykk 1007 hPa
Sikt: 6000 m
Få skyer i en høyde av 2000 ft
Spredte skyer i en høyde av 12000 ft

METAR: VYMD 230630Z 20010KT 6000 FEW020 SCT120 38/19 Q1007

Tid: 13:41 (07:11 UTC)

Varsel

Denne rapporten ble laget for 2 timer og 11 minutter siden, klokken 05:00 UTC
Varsel gyldig fra 23. klokken 06 UTC til 24. klokken 06 UTC
Vind 10 kt fra Sør
Sikt: 6000 m
Spredte skyer i en høyde av 2000 ft
Midlertidig
fra 23. klokken 06 UTC til 23. klokken 12 UTC
Vind 10 kt fra Sør
Sikt: 5000 m
dis

TAF: VYMD 230500Z 2306/2406 19010KT 6000 SCT020 TEMPO 2306/2312 17010KT 5000 HZ

Værobservasjoner og værvarsel for over 4000 flyplasser (METAR- og TAF-rapporter).

Tilgjengelige stasjoner er representert av de røde og gule prikkene på kartet.

Hold musepekeren over prikken for å se navnet på stasjonen.

Klikk så for å se værobservasjoner og -varsler.

For å forandre kartet kan du klikke på den grønne knappen med svart kryss for å zoome inn, på den grønne knappen med strek for å zoome ut, eller på de grønne pilene for å se tilstøtende kart.


METAR-TAF: